sensor_id;sensor_type;location;lat;lon;timestamp;pressure;altitude;pressure_sealevel;temperature;humidity
74343;BME280;62767;50.300;8.070;2023-11-21T00:01:17;99222.81;;;18.80;49.60
74343;BME280;62767;50.300;8.070;2023-11-21T00:03:42;99215.88;;;18.79;49.55
74343;BME280;62767;50.300;8.070;2023-11-21T00:06:09;99219.50;;;18.78;49.58
74343;BME280;62767;50.300;8.070;2023-11-21T00:08:35;99222.97;;;18.79;49.67
74343;BME280;62767;50.300;8.070;2023-11-21T00:11:01;99212.75;;;18.76;49.75
74343;BME280;62767;50.300;8.070;2023-11-21T00:13:27;99215.25;;;18.77;49.80
74343;BME280;62767;50.300;8.070;2023-11-21T00:15:53;99218.31;;;18.73;49.71
74343;BME280;62767;50.300;8.070;2023-11-21T00:18:18;99222.75;;;18.72;49.65
74343;BME280;62767;50.300;8.070;2023-11-21T00:20:44;99226.56;;;18.70;49.70
74343;BME280;62767;50.300;8.070;2023-11-21T00:23:10;99231.97;;;18.68;49.94
74343;BME280;62767;50.300;8.070;2023-11-21T00:25:36;99235.78;;;18.66;49.71
74343;BME280;62767;50.300;8.070;2023-11-21T00:28:01;99233.44;;;18.63;49.91
74343;BME280;62767;50.300;8.070;2023-11-21T00:30:27;99234.25;;;18.63;49.62
74343;BME280;62767;50.300;8.070;2023-11-21T00:32:54;99236.53;;;18.58;49.79
74343;BME280;62767;50.300;8.070;2023-11-21T00:35:20;99240.16;;;18.57;49.80
74343;BME280;62767;50.300;8.070;2023-11-21T00:37:47;99240.66;;;18.61;49.84
74343;BME280;62767;50.300;8.070;2023-11-21T00:40:15;99242.78;;;18.57;49.65
74343;BME280;62767;50.300;8.070;2023-11-21T00:42:41;99240.44;;;18.54;49.96
74343;BME280;62767;50.300;8.070;2023-11-21T00:45:07;99242.09;;;18.55;49.92
74343;BME280;62767;50.300;8.070;2023-11-21T00:47:33;99233.38;;;18.55;49.91
74343;BME280;62767;50.300;8.070;2023-11-21T00:50:00;99237.13;;;18.52;50.01
74343;BME280;62767;50.300;8.070;2023-11-21T00:52:25;99240.44;;;18.54;49.95
74343;BME280;62767;50.300;8.070;2023-11-21T00:54:51;99238.09;;;18.51;49.98
74343;BME280;62767;50.300;8.070;2023-11-21T00:57:17;99236.31;;;18.51;50.13
74343;BME280;62767;50.300;8.070;2023-11-21T00:59:42;99234.19;;;18.55;50.01
74343;BME280;62767;50.300;8.070;2023-11-21T01:02:08;99245.03;;;18.52;49.93
74343;BME280;62767;50.300;8.070;2023-11-21T01:04:36;99241.44;;;18.53;49.97
74343;BME280;62767;50.300;8.070;2023-11-21T01:07:01;99242.03;;;18.47;49.93
74343;BME280;62767;50.300;8.070;2023-11-21T01:09:27;99245.78;;;18.44;49.96
74343;BME280;62767;50.300;8.070;2023-11-21T01:11:53;99254.69;;;18.43;50.16
74343;BME280;62767;50.300;8.070;2023-11-21T01:14:19;99251.22;;;18.43;50.10
74343;BME280;62767;50.300;8.070;2023-11-21T01:16:45;99251.75;;;18.46;50.13
74343;BME280;62767;50.300;8.070;2023-11-21T01:19:11;99263.13;;;18.47;50.08
74343;BME280;62767;50.300;8.070;2023-11-21T01:21:36;99256.19;;;18.46;50.08
74343;BME280;62767;50.300;8.070;2023-11-21T01:24:03;99255.50;;;18.44;50.18
74343;BME280;62767;50.300;8.070;2023-11-21T01:26:29;99252.88;;;18.44;50.11
74343;BME280;62767;50.300;8.070;2023-11-21T01:28:54;99265.91;;;18.45;50.07
74343;BME280;62767;50.300;8.070;2023-11-21T01:31:20;99271.63;;;18.41;50.11
74343;BME280;62767;50.300;8.070;2023-11-21T01:33:46;99267.66;;;18.37;49.86
74343;BME280;62767;50.300;8.070;2023-11-21T01:36:12;99266.38;;;18.41;49.84
74343;BME280;62767;50.300;8.070;2023-11-21T01:38:37;99274.56;;;18.38;49.96
74343;BME280;62767;50.300;8.070;2023-11-21T01:41:03;99277.38;;;18.36;49.70
74343;BME280;62767;50.300;8.070;2023-11-21T01:43:30;99282.47;;;18.38;49.94
74343;BME280;62767;50.300;8.070;2023-11-21T01:45:57;99287.09;;;18.36;50.18
74343;BME280;62767;50.300;8.070;2023-11-21T01:48:24;99287.38;;;18.33;50.09
74343;BME280;62767;50.300;8.070;2023-11-21T01:50:50;99287.91;;;18.36;50.18
74343;BME280;62767;50.300;8.070;2023-11-21T01:53:16;99292.03;;;18.39;50.07
74343;BME280;62767;50.300;8.070;2023-11-21T01:55:42;99292.81;;;18.31;50.01
74343;BME280;62767;50.300;8.070;2023-11-21T01:58:10;99301.69;;;18.30;49.89
74343;BME280;62767;50.300;8.070;2023-11-21T02:00:38;99301.69;;;18.30;50.17
74343;BME280;62767;50.300;8.070;2023-11-21T02:03:03;99293.09;;;18.28;50.06
74343;BME280;62767;50.300;8.070;2023-11-21T02:05:29;99293.78;;;18.30;50.02
74343;BME280;62767;50.300;8.070;2023-11-21T02:07:55;99290.31;;;18.30;50.11
74343;BME280;62767;50.300;8.070;2023-11-21T02:10:22;99293.63;;;18.32;49.99
74343;BME280;62767;50.300;8.070;2023-11-21T02:12:49;99292.13;;;18.29;49.91
74343;BME280;62767;50.300;8.070;2023-11-21T02:15:18;99285.34;;;18.27;50.09
74343;BME280;62767;50.300;8.070;2023-11-21T02:17:49;99295.22;;;18.25;50.12
74343;BME280;62767;50.300;8.070;2023-11-21T02:20:20;99296.72;;;18.27;49.99
74343;BME280;62767;50.300;8.070;2023-11-21T02:22:53;99295.59;;;18.30;49.99
74343;BME280;62767;50.300;8.070;2023-11-21T02:25:25;99293.25;;;18.27;49.95
74343;BME280;62767;50.300;8.070;2023-11-21T02:27:51;99301.00;;;18.28;50.04
74343;BME280;62767;50.300;8.070;2023-11-21T02:30:17;99292.75;;;18.23;50.09
74343;BME280;62767;50.300;8.070;2023-11-21T02:32:45;99301.47;;;18.24;49.88
74343;BME280;62767;50.300;8.070;2023-11-21T02:35:11;99292.59;;;18.25;50.12
74343;BME280;62767;50.300;8.070;2023-11-21T02:37:37;99306.88;;;18.22;49.86
74343;BME280;62767;50.300;8.070;2023-11-21T02:40:04;99312.28;;;18.21;50.12
74343;BME280;62767;50.300;8.070;2023-11-21T02:42:35;99309.84;;;18.19;50.06
74343;BME280;62767;50.300;8.070;2023-11-21T02:45:00;99302.75;;;18.20;49.99
74343;BME280;62767;50.300;8.070;2023-11-21T02:47:26;99309.97;;;18.18;49.92
74343;BME280;62767;50.300;8.070;2023-11-21T02:49:52;99307.84;;;18.21;49.89
74343;BME280;62767;50.300;8.070;2023-11-21T02:52:18;99310.50;;;18.21;50.09
74343;BME280;62767;50.300;8.070;2023-11-21T02:54:44;99309.97;;;18.18;49.95
74343;BME280;62767;50.300;8.070;2023-11-21T02:57:10;99306.16;;;18.12;50.08
74343;BME280;62767;50.300;8.070;2023-11-21T02:59:36;99321.13;;;18.11;50.05
74343;BME280;62767;50.300;8.070;2023-11-21T03:02:01;99318.03;;;18.16;49.99
74343;BME280;62767;50.300;8.070;2023-11-21T03:04:27;99321.09;;;18.29;49.86
74343;BME280;62767;50.300;8.070;2023-11-21T03:06:52;99314.00;;;18.65;48.89
74343;BME280;62767;50.300;8.070;2023-11-21T03:09:18;99315.09;;;19.06;47.80
74343;BME280;62767;50.300;8.070;2023-11-21T03:11:44;99311.00;;;19.54;46.59
74343;BME280;62767;50.300;8.070;2023-11-21T03:14:09;99313.94;;;20.01;45.34
74343;BME280;62767;50.300;8.070;2023-11-21T03:16:36;99317.78;;;20.39;44.51
74343;BME280;62767;50.300;8.070;2023-11-21T03:19:04;99315.91;;;20.80;43.49
74343;BME280;62767;50.300;8.070;2023-11-21T03:21:30;99317.03;;;21.18;42.53
74343;BME280;62767;50.300;8.070;2023-11-21T03:23:56;99316.94;;;21.42;42.04
74343;BME280;62767;50.300;8.070;2023-11-21T03:26:21;99320.94;;;21.69;41.28
74343;BME280;62767;50.300;8.070;2023-11-21T03:28:47;99333.56;;;21.98;40.64
74343;BME280;62767;50.300;8.070;2023-11-21T03:31:13;99339.16;;;22.26;40.31
74343;BME280;62767;50.300;8.070;2023-11-21T03:33:38;99334.59;;;22.57;39.52
74343;BME280;62767;50.300;8.070;2023-11-21T03:36:04;99341.63;;;22.87;38.90
74343;BME280;62767;50.300;8.070;2023-11-21T03:38:30;99340.38;;;23.13;38.09
74343;BME280;62767;50.300;8.070;2023-11-21T03:40:55;99347.69;;;23.40;37.74
74343;BME280;62767;50.300;8.070;2023-11-21T03:43:21;99349.34;;;23.70;36.88
74343;BME280;62767;50.300;8.070;2023-11-21T03:45:47;99347.28;;;23.87;36.74
74343;BME280;62767;50.300;8.070;2023-11-21T03:48:16;99346.34;;;24.16;36.13
74343;BME280;62767;50.300;8.070;2023-11-21T03:50:41;99357.22;;;24.36;36.24
74343;BME280;62767;50.300;8.070;2023-11-21T03:53:07;99358.09;;;24.64;35.53
74343;BME280;62767;50.300;8.070;2023-11-21T03:55:33;99352.41;;;24.95;35.00
74343;BME280;62767;50.300;8.070;2023-11-21T03:57:58;99347.66;;;25.18;34.49
74343;BME280;62767;50.300;8.070;2023-11-21T04:00:24;99349.75;;;25.29;34.04
74343;BME280;62767;50.300;8.070;2023-11-21T04:02:53;99352.13;;;25.52;33.89
74343;BME280;62767;50.300;8.070;2023-11-21T04:05:20;99354.50;;;25.75;33.28
74343;BME280;62767;50.300;8.070;2023-11-21T04:07:45;99355.56;;;25.74;33.50
74343;BME280;62767;50.300;8.070;2023-11-21T04:10:11;99355.78;;;25.86;33.51
74343;BME280;62767;50.300;8.070;2023-11-21T04:12:38;99359.09;;;25.94;33.64
74343;BME280;62767;50.300;8.070;2023-11-21T04:15:04;99355.81;;;25.99;33.15
74343;BME280;62767;50.300;8.070;2023-11-21T04:17:30;99367.13;;;26.01;33.49
74343;BME280;62767;50.300;8.070;2023-11-21T04:19:56;99374.69;;;26.04;33.20
74343;BME280;62767;50.300;8.070;2023-11-21T04:22:21;99374.06;;;25.95;33.48
74343;BME280;62767;50.300;8.070;2023-11-21T04:24:47;99380.25;;;26.02;33.12
74343;BME280;62767;50.300;8.070;2023-11-21T04:27:13;99379.00;;;25.98;33.24
74343;BME280;62767;50.300;8.070;2023-11-21T04:29:39;99382.47;;;25.99;33.28
74343;BME280;62767;50.300;8.070;2023-11-21T04:32:06;99386.19;;;26.04;33.36
74343;BME280;62767;50.300;8.070;2023-11-21T04:34:33;99392.78;;;26.02;33.66
74343;BME280;62767;50.300;8.070;2023-11-21T04:37:00;99390.47;;;25.92;33.80
74343;BME280;62767;50.300;8.070;2023-11-21T04:39:26;99394.50;;;25.68;34.07
74343;BME280;62767;50.300;8.070;2023-11-21T04:41:52;99397.47;;;25.24;34.90
74343;BME280;62767;50.300;8.070;2023-11-21T04:44:17;99401.47;;;24.86;36.52
74343;BME280;62767;50.300;8.070;2023-11-21T04:46:43;99409.84;;;24.61;36.96
74343;BME280;62767;50.300;8.070;2023-11-21T04:49:08;99408.63;;;24.43;37.19
74343;BME280;62767;50.300;8.070;2023-11-21T04:51:34;99404.09;;;24.01;37.92
74343;BME280;62767;50.300;8.070;2023-11-21T04:54:00;99416.28;;;23.80;39.09
74343;BME280;62767;50.300;8.070;2023-11-21T04:56:25;99416.38;;;23.43;40.32
74343;BME280;62767;50.300;8.070;2023-11-21T04:58:53;99422.06;;;23.25;40.51
74343;BME280;62767;50.300;8.070;2023-11-21T05:01:19;99424.03;;;23.09;41.64
74343;BME280;62767;50.300;8.070;2023-11-21T05:03:44;99418.81;;;23.15;41.52
74343;BME280;62767;50.300;8.070;2023-11-21T05:06:10;99428.28;;;23.32;41.50
74343;BME280;62767;50.300;8.070;2023-11-21T05:08:36;99421.72;;;23.58;41.12
74343;BME280;62767;50.300;8.070;2023-11-21T05:11:02;99429.94;;;23.92;40.40
74343;BME280;62767;50.300;8.070;2023-11-21T05:13:28;99429.34;;;24.26;39.40
74343;BME280;62767;50.300;8.070;2023-11-21T05:15:56;99431.72;;;24.57;39.27
74343;BME280;62767;50.300;8.070;2023-11-21T05:18:22;99438.88;;;24.78;38.13
74343;BME280;62767;50.300;8.070;2023-11-21T05:20:48;99440.50;;;24.93;38.31
74343;BME280;62767;50.300;8.070;2023-11-21T05:23:14;99445.72;;;25.08;38.09
74343;BME280;62767;50.300;8.070;2023-11-21T05:25:40;99438.13;;;25.33;37.49
74343;BME280;62767;50.300;8.070;2023-11-21T05:28:06;99450.22;;;25.35;37.30
74343;BME280;62767;50.300;8.070;2023-11-21T05:30:32;99454.81;;;25.48;37.16
74343;BME280;62767;50.300;8.070;2023-11-21T05:32:58;99460.97;;;25.49;37.36
74343;BME280;62767;50.300;8.070;2023-11-21T05:35:24;99458.06;;;25.43;37.40
74343;BME280;62767;50.300;8.070;2023-11-21T05:37:49;99471.53;;;25.63;36.74
74343;BME280;62767;50.300;8.070;2023-11-21T05:40:15;99470.56;;;25.71;36.93
74343;BME280;62767;50.300;8.070;2023-11-21T05:42:41;99471.44;;;25.50;37.18
74343;BME280;62767;50.300;8.070;2023-11-21T05:45:07;99474.72;;;25.52;37.20
74343;BME280;62767;50.300;8.070;2023-11-21T05:47:41;99481.59;;;25.40;36.93
74343;BME280;62767;50.300;8.070;2023-11-21T05:50:08;99470.41;;;25.23;37.28
74343;BME280;62767;50.300;8.070;2023-11-21T05:52:39;99478.31;;;24.89;38.07
74343;BME280;62767;50.300;8.070;2023-11-21T05:55:07;99467.13;;;24.57;38.84
74343;BME280;62767;50.300;8.070;2023-11-21T05:57:37;99480.25;;;24.23;39.46
74343;BME280;62767;50.300;8.070;2023-11-21T06:00:05;99480.53;;;23.99;39.84
74343;BME280;62767;50.300;8.070;2023-11-21T06:02:38;99489.63;;;23.75;40.24
74343;BME280;62767;50.300;8.070;2023-11-21T06:05:06;99492.34;;;23.52;40.70
74343;BME280;62767;50.300;8.070;2023-11-21T06:07:32;99490.38;;;23.31;41.08
74343;BME280;62767;50.300;8.070;2023-11-21T06:09:58;99490.31;;;23.17;41.43
74343;BME280;62767;50.300;8.070;2023-11-21T06:12:23;99498.06;;;22.81;42.82
74343;BME280;62767;50.300;8.070;2023-11-21T06:14:49;99496.31;;;22.73;43.28
74343;BME280;62767;50.300;8.070;2023-11-21T06:17:14;99508.75;;;22.65;43.70
74343;BME280;62767;50.300;8.070;2023-11-21T06:19:40;99498.59;;;22.76;44.05
74343;BME280;62767;50.300;8.070;2023-11-21T06:22:05;99511.44;;;23.10;44.47
74343;BME280;62767;50.300;8.070;2023-11-21T06:24:31;99516.41;;;23.13;43.53
74343;BME280;62767;50.300;8.070;2023-11-21T06:26:57;99513.63;;;23.29;43.23
74343;BME280;62767;50.300;8.070;2023-11-21T06:29:23;99523.56;;;23.50;42.55
74343;BME280;62767;50.300;8.070;2023-11-21T06:31:49;99529.94;;;23.64;41.87
74343;BME280;62767;50.300;8.070;2023-11-21T06:34:14;99530.78;;;23.94;41.42
74343;BME280;62767;50.300;8.070;2023-11-21T06:36:40;99542.41;;;24.07;40.67
74343;BME280;62767;50.300;8.070;2023-11-21T06:39:06;99547.00;;;24.28;40.19
74343;BME280;62767;50.300;8.070;2023-11-21T06:41:33;99540.47;;;24.45;39.48
74343;BME280;62767;50.300;8.070;2023-11-21T06:43:59;99548.63;;;24.58;39.30
74343;BME280;62767;50.300;8.070;2023-11-21T06:46:25;99549.41;;;24.74;38.85
74343;BME280;62767;50.300;8.070;2023-11-21T06:48:50;99555.41;;;24.82;38.85
74343;BME280;62767;50.300;8.070;2023-11-21T06:51:16;99551.03;;;24.89;38.61
74343;BME280;62767;50.300;8.070;2023-11-21T06:53:41;99562.00;;;25.01;37.97
74343;BME280;62767;50.300;8.070;2023-11-21T06:56:17;99564.69;;;24.86;38.43
74343;BME280;62767;50.300;8.070;2023-11-21T06:58:44;99572.00;;;24.63;39.17
74343;BME280;62767;50.300;8.070;2023-11-21T07:01:11;99577.72;;;24.31;39.63
74343;BME280;62767;50.300;8.070;2023-11-21T07:03:36;99577.53;;;24.03;40.03
74343;BME280;62767;50.300;8.070;2023-11-21T07:06:03;99588.78;;;23.75;40.82
74343;BME280;62767;50.300;8.070;2023-11-21T07:08:29;99595.25;;;23.58;41.03
74343;BME280;62767;50.300;8.070;2023-11-21T07:10:54;99593.16;;;23.46;41.65
74343;BME280;62767;50.300;8.070;2023-11-21T07:13:20;99603.16;;;23.21;42.11
74343;BME280;62767;50.300;8.070;2023-11-21T07:15:47;99600.59;;;23.05;42.12
74343;BME280;62767;50.300;8.070;2023-11-21T07:18:13;99602.00;;;22.92;42.66
74343;BME280;62767;50.300;8.070;2023-11-21T07:20:39;99604.56;;;22.78;42.56
74343;BME280;62767;50.300;8.070;2023-11-21T07:23:05;99617.72;;;22.63;42.96
74343;BME280;62767;50.300;8.070;2023-11-21T07:25:31;99608.66;;;22.49;43.35
74343;BME280;62767;50.300;8.070;2023-11-21T07:27:59;99614.53;;;22.29;43.83
74343;BME280;62767;50.300;8.070;2023-11-21T07:30:26;99610.41;;;22.18;43.85
74343;BME280;62767;50.300;8.070;2023-11-21T07:32:51;99625.38;;;22.03;44.44
74343;BME280;62767;50.300;8.070;2023-11-21T07:35:17;99624.03;;;21.91;44.51
74343;BME280;62767;50.300;8.070;2023-11-21T07:37:42;99628.16;;;21.77;45.03
74343;BME280;62767;50.300;8.070;2023-11-21T07:40:08;99632.81;;;21.67;45.35
74343;BME280;62767;50.300;8.070;2023-11-21T07:42:37;99642.75;;;21.57;45.42
74343;BME280;62767;50.300;8.070;2023-11-21T07:45:05;99642.59;;;21.50;45.63
74343;BME280;62767;50.300;8.070;2023-11-21T07:47:32;99646.22;;;21.33;45.90
74343;BME280;62767;50.300;8.070;2023-11-21T07:50:01;99656.97;;;21.23;46.07
74343;BME280;62767;50.300;8.070;2023-11-21T07:52:28;99655.63;;;21.19;46.20
74343;BME280;62767;50.300;8.070;2023-11-21T07:54:54;99655.25;;;21.06;46.59
74343;BME280;62767;50.300;8.070;2023-11-21T07:57:19;99663.81;;;21.08;46.33
74343;BME280;62767;50.300;8.070;2023-11-21T07:59:45;99662.50;;;20.96;46.69
74343;BME280;62767;50.300;8.070;2023-11-21T08:02:10;99670.06;;;20.91;46.77
74343;BME280;62767;50.300;8.070;2023-11-21T08:04:36;99672.84;;;20.81;46.97
74343;BME280;62767;50.300;8.070;2023-11-21T08:07:02;99668.19;;;20.75;47.20
74343;BME280;62767;50.300;8.070;2023-11-21T08:09:29;99668.53;;;20.72;47.06
74343;BME280;62767;50.300;8.070;2023-11-21T08:11:55;99680.38;;;20.68;47.18
74343;BME280;62767;50.300;8.070;2023-11-21T08:14:22;99681.00;;;20.62;47.23
74343;BME280;62767;50.300;8.070;2023-11-21T08:16:51;99676.69;;;20.53;47.52
74343;BME280;62767;50.300;8.070;2023-11-21T08:19:17;99689.75;;;20.54;47.52
74343;BME280;62767;50.300;8.070;2023-11-21T08:21:43;99692.88;;;20.50;47.63
74343;BME280;62767;50.300;8.070;2023-11-21T08:24:10;99688.72;;;20.47;47.57
74343;BME280;62767;50.300;8.070;2023-11-21T08:26:37;99700.75;;;20.42;47.69
74343;BME280;62767;50.300;8.070;2023-11-21T08:29:03;99704.00;;;20.36;47.70
74343;BME280;62767;50.300;8.070;2023-11-21T08:31:28;99705.00;;;20.35;47.70
74343;BME280;62767;50.300;8.070;2023-11-21T08:33:55;99705.31;;;20.32;47.80
74343;BME280;62767;50.300;8.070;2023-11-21T08:36:23;99708.38;;;20.27;47.88
74343;BME280;62767;50.300;8.070;2023-11-21T08:38:50;99706.56;;;20.28;47.77
74343;BME280;62767;50.300;8.070;2023-11-21T08:41:18;99707.19;;;20.22;47.98
74343;BME280;62767;50.300;8.070;2023-11-21T08:43:49;99704.88;;;20.19;48.01
74343;BME280;62767;50.300;8.070;2023-11-21T08:46:15;99705.84;;;20.17;48.03
74343;BME280;62767;50.300;8.070;2023-11-21T08:48:42;99701.72;;;20.15;48.06
74343;BME280;62767;50.300;8.070;2023-11-21T08:51:09;99700.34;;;20.11;48.13
74343;BME280;62767;50.300;8.070;2023-11-21T08:53:35;99703.81;;;20.11;48.05
74343;BME280;62767;50.300;8.070;2023-11-21T08:56:01;99706.09;;;20.06;48.11
74343;BME280;62767;50.300;8.070;2023-11-21T08:58:26;99704.44;;;20.05;48.21
74343;BME280;62767;50.300;8.070;2023-11-21T09:00:52;99702.09;;;20.02;48.15
74343;BME280;62767;50.300;8.070;2023-11-21T09:03:17;99710.19;;;20.01;48.13
74343;BME280;62767;50.300;8.070;2023-11-21T09:05:43;99709.50;;;19.99;48.06
74343;BME280;62767;50.300;8.070;2023-11-21T09:08:10;99717.41;;;19.99;48.11
74343;BME280;62767;50.300;8.070;2023-11-21T09:10:35;99723.72;;;19.98;48.05
74343;BME280;62767;50.300;8.070;2023-11-21T09:13:02;99724.84;;;19.95;48.14
74343;BME280;62767;50.300;8.070;2023-11-21T09:15:28;99735.53;;;19.94;48.11
74343;BME280;62767;50.300;8.070;2023-11-21T09:17:53;99729.59;;;19.92;48.31
74343;BME280;62767;50.300;8.070;2023-11-21T09:20:19;99729.44;;;19.93;48.16
74343;BME280;62767;50.300;8.070;2023-11-21T09:22:48;99736.69;;;19.91;48.22
74343;BME280;62767;50.300;8.070;2023-11-21T09:25:14;99735.03;;;19.90;48.05
74343;BME280;62767;50.300;8.070;2023-11-21T09:27:40;99742.25;;;19.88;48.13
74343;BME280;62767;50.300;8.070;2023-11-21T09:30:07;99744.25;;;19.86;48.21
74343;BME280;62767;50.300;8.070;2023-11-21T09:32:37;99754.94;;;19.85;48.13
74343;BME280;62767;50.300;8.070;2023-11-21T09:35:04;99754.13;;;19.84;48.12
74343;BME280;62767;50.300;8.070;2023-11-21T09:37:30;99749.81;;;19.83;48.23
74343;BME280;62767;50.300;8.070;2023-11-21T09:39:56;99753.59;;;19.81;48.23
74343;BME280;62767;50.300;8.070;2023-11-21T09:42:37;99765.16;;;19.80;48.26
74343;BME280;62767;50.300;8.070;2023-11-21T09:45:16;99760.97;;;19.77;48.47
74343;BME280;62767;50.300;8.070;2023-11-21T09:47:46;99752.53;;;19.73;48.30
74343;BME280;62767;50.300;8.070;2023-11-21T09:50:16;99761.59;;;19.71;48.43
74343;BME280;62767;50.300;8.070;2023-11-21T09:55:34;99774.25;;;19.67;48.41
74343;BME280;62767;50.300;8.070;2023-11-21T09:58:03;99772.59;;;19.66;48.46
74343;BME280;62767;50.300;8.070;2023-11-21T10:00:30;99778.03;;;19.65;48.48
74343;BME280;62767;50.300;8.070;2023-11-21T10:02:58;99780.97;;;19.62;48.51
74343;BME280;62767;50.300;8.070;2023-11-21T10:05:25;99787.91;;;19.63;48.73
74343;BME280;62767;50.300;8.070;2023-11-21T10:07:51;99785.44;;;19.61;48.53
74343;BME280;62767;50.300;8.070;2023-11-21T10:10:21;99787.22;;;19.61;48.53
74343;BME280;62767;50.300;8.070;2023-11-21T10:12:50;99792.00;;;19.57;48.60
74343;BME280;62767;50.300;8.070;2023-11-21T10:15:21;99799.06;;;19.57;48.72
74343;BME280;62767;50.300;8.070;2023-11-21T10:17:48;99791.28;;;19.55;48.52
74343;BME280;62767;50.300;8.070;2023-11-21T10:20:14;99797.69;;;19.53;48.46
74343;BME280;62767;50.300;8.070;2023-11-21T10:22:41;99802.16;;;19.52;48.55
74343;BME280;62767;50.300;8.070;2023-11-21T10:25:08;99798.97;;;19.49;48.64
74343;BME280;62767;50.300;8.070;2023-11-21T10:27:35;99807.19;;;19.46;48.46
74343;BME280;62767;50.300;8.070;2023-11-21T10:30:02;99810.66;;;19.46;48.53
74343;BME280;62767;50.300;8.070;2023-11-21T10:32:29;99807.31;;;19.44;48.50
74343;BME280;62767;50.300;8.070;2023-11-21T10:35:01;99808.28;;;19.43;48.68
74343;BME280;62767;50.300;8.070;2023-11-21T10:37:34;99815.38;;;19.43;48.78
74343;BME280;62767;50.300;8.070;2023-11-21T10:40:00;99807.44;;;19.43;48.70
74343;BME280;62767;50.300;8.070;2023-11-21T10:42:25;99805.63;;;19.43;48.60
74343;BME280;62767;50.300;8.070;2023-11-21T10:44:53;99804.81;;;19.43;48.72
74343;BME280;62767;50.300;8.070;2023-11-21T10:47:19;99799.16;;;19.38;48.56
74343;BME280;62767;50.300;8.070;2023-11-21T10:49:48;99799.28;;;19.36;48.46
74343;BME280;62767;50.300;8.070;2023-11-21T10:52:14;99802.09;;;19.34;48.62
74343;BME280;62767;50.300;8.070;2023-11-21T10:54:43;99803.72;;;19.35;48.75
74343;BME280;62767;50.300;8.070;2023-11-21T10:57:10;99806.53;;;19.34;48.80
74343;BME280;62767;50.300;8.070;2023-11-21T10:59:36;99810.16;;;19.33;48.83
74343;BME280;62767;50.300;8.070;2023-11-21T11:02:32;99802.38;;;19.31;48.90
74343;BME280;62767;50.300;8.070;2023-11-21T11:04:59;99816.25;;;19.33;48.81
74343;BME280;62767;50.300;8.070;2023-11-21T11:07:27;99815.56;;;19.31;48.82
74343;BME280;62767;50.300;8.070;2023-11-21T11:09:58;99820.31;;;19.28;48.88
74343;BME280;62767;50.300;8.070;2023-11-21T11:12:24;99800.03;;;19.28;48.71
74343;BME280;62767;50.300;8.070;2023-11-21T11:14:51;99814.22;;;19.27;48.94
74343;BME280;62767;50.300;8.070;2023-11-21T11:17:19;99808.09;;;19.27;48.94
74343;BME280;62767;50.300;8.070;2023-11-21T11:19:47;99810.59;;;19.28;48.84
74343;BME280;62767;50.300;8.070;2023-11-21T11:22:37;99809.91;;;19.26;48.96
74343;BME280;62767;50.300;8.070;2023-11-21T11:27:54;99815.63;;;19.22;49.12
74343;BME280;62767;50.300;8.070;2023-11-21T11:33:36;99815.91;;;19.19;49.00
74343;BME280;62767;50.300;8.070;2023-11-21T11:36:34;99817.69;;;19.18;49.05
74343;BME280;62767;50.300;8.070;2023-11-21T11:39:02;99813.25;;;19.19;49.13
74343;BME280;62767;50.300;8.070;2023-11-21T11:41:30;99817.69;;;19.18;48.85
74343;BME280;62767;50.300;8.070;2023-11-21T11:43:58;99817.56;;;19.20;49.05
74343;BME280;62767;50.300;8.070;2023-11-21T11:46:53;99816.34;;;19.14;49.06
74343;BME280;62767;50.300;8.070;2023-11-21T11:49:27;99810.22;;;19.14;49.17
74343;BME280;62767;50.300;8.070;2023-11-21T11:52:35;99814.41;;;19.16;49.06
74343;BME280;62767;50.300;8.070;2023-11-21T11:55:05;99813.69;;;19.14;49.07
74343;BME280;62767;50.300;8.070;2023-11-21T11:57:31;99812.19;;;19.12;49.09
74343;BME280;62767;50.300;8.070;2023-11-21T12:02:50;99811.50;;;19.10;49.03
74343;BME280;62767;50.300;8.070;2023-11-21T12:05:18;99821.53;;;19.06;48.95
74343;BME280;62767;50.300;8.070;2023-11-21T12:07:55;99826.81;;;19.06;48.96
74343;BME280;62767;50.300;8.070;2023-11-21T12:10:24;99825.97;;;19.06;49.05
74343;BME280;62767;50.300;8.070;2023-11-21T12:12:57;99835.00;;;19.03;48.40
74343;BME280;62767;50.300;8.070;2023-11-21T12:15:24;99831.50;;;19.03;49.05
74343;BME280;62767;50.300;8.070;2023-11-21T12:17:51;99831.38;;;19.04;48.94
74343;BME280;62767;50.300;8.070;2023-11-21T12:20:22;99834.59;;;18.98;48.71
74343;BME280;62767;50.300;8.070;2023-11-21T12:22:50;99827.38;;;19.00;49.05
74343;BME280;62767;50.300;8.070;2023-11-21T12:25:19;99838.91;;;18.99;48.88
74343;BME280;62767;50.300;8.070;2023-11-21T12:27:47;99839.03;;;18.98;49.12
74343;BME280;62767;50.300;8.070;2023-11-21T12:30:16;99835.97;;;19.02;49.18
74343;BME280;62767;50.300;8.070;2023-11-21T12:32:49;99837.94;;;19.00;49.06
74343;BME280;62767;50.300;8.070;2023-11-21T12:35:15;99842.38;;;19.00;49.25
74343;BME280;62767;50.300;8.070;2023-11-21T12:37:45;99840.69;;;18.99;49.26
74343;BME280;62767;50.300;8.070;2023-11-21T12:40:12;99837.50;;;18.95;48.99
74343;BME280;62767;50.300;8.070;2023-11-21T12:42:45;99844.44;;;18.96;49.09
74343;BME280;62767;50.300;8.070;2023-11-21T12:45:27;99847.06;;;18.96;49.06
74343;BME280;62767;50.300;8.070;2023-11-21T12:47:58;99853.31;;;18.95;49.27
74343;BME280;62767;50.300;8.070;2023-11-21T12:50:27;99845.72;;;18.92;49.37
74343;BME280;62767;50.300;8.070;2023-11-21T12:53:01;99847.50;;;18.91;49.41
74343;BME280;62767;50.300;8.070;2023-11-21T12:55:32;99856.13;;;18.93;49.36
74343;BME280;62767;50.300;8.070;2023-11-21T12:58:01;99857.53;;;18.88;49.15
74343;BME280;62767;50.300;8.070;2023-11-21T13:00:39;99862.94;;;18.86;49.14
74343;BME280;62767;50.300;8.070;2023-11-21T13:03:09;99858.38;;;18.88;49.31
74343;BME280;62767;50.300;8.070;2023-11-21T13:05:39;99865.28;;;18.89;49.00
74343;BME280;62767;50.300;8.070;2023-11-21T13:08:10;99862.94;;;18.86;49.07
74343;BME280;62767;50.300;8.070;2023-11-21T13:10:43;99863.06;;;18.85;49.28
74343;BME280;62767;50.300;8.070;2023-11-21T13:13:12;99870.00;;;18.86;49.18